createdAt,value
2019-05-20T00:00:04.043Z,99.99
2019-05-20T00:01:04.082Z,99.99
2019-05-20T00:02:04.115Z,99.99
2019-05-20T00:03:04.153Z,99.99
2019-05-20T00:04:04.186Z,99.99
2019-05-20T00:05:04.222Z,99.99
2019-05-20T00:06:04.273Z,99.99
2019-05-20T00:07:04.294Z,99.99
2019-05-20T00:08:04.330Z,99.99
2019-05-20T00:09:04.378Z,99.99
2019-05-20T00:10:04.407Z,99.99
2019-05-20T00:11:04.440Z,99.99
2019-05-20T00:12:04.474Z,99.99
2019-05-20T00:13:04.511Z,99.99
2019-05-20T00:14:04.546Z,99.99
2019-05-20T00:15:04.580Z,99.99
2019-05-20T00:16:04.616Z,99.99
2019-05-20T00:17:04.671Z,99.99
2019-05-20T00:18:04.686Z,99.99
2019-05-20T00:19:04.722Z,99.99
2019-05-20T00:20:04.760Z,99.99
2019-05-20T00:21:04.795Z,99.99
2019-05-20T00:22:04.837Z,99.99
2019-05-20T00:23:04.866Z,99.99
2019-05-20T00:24:04.900Z,99.99
2019-05-20T00:25:04.941Z,99.99
2019-05-20T00:26:04.980Z,99.99
2019-05-20T00:27:05.007Z,99.99
2019-05-20T00:28:05.044Z,99.99
2019-05-20T00:29:05.085Z,99.99
2019-05-20T00:30:05.116Z,99.99
2019-05-20T00:31:05.154Z,99.99
2019-05-20T00:32:05.187Z,99.99
2019-05-20T00:33:05.237Z,99.99
2019-05-20T00:34:05.259Z,99.99
2019-05-20T00:35:05.295Z,99.99
2019-05-20T00:36:05.329Z,99.99
2019-05-20T00:37:05.364Z,99.99
2019-05-20T00:38:05.402Z,99.99
2019-05-20T00:39:05.435Z,99.99
2019-05-20T00:40:05.474Z,99.99
2019-05-20T00:41:05.575Z,99.99
2019-05-20T00:42:05.544Z,99.99
2019-05-20T00:43:05.576Z,99.99
2019-05-20T00:44:05.661Z,99.99
2019-05-20T00:45:05.650Z,99.99
2019-05-20T00:46:05.684Z,99.99
2019-05-20T00:47:05.719Z,99.99
2019-05-20T00:48:05.759Z,99.99
2019-05-20T00:49:05.792Z,99.99
2019-05-20T00:50:05.829Z,99.99
2019-05-20T00:51:05.864Z,99.99
2019-05-20T00:52:05.899Z,99.99
2019-05-20T00:53:05.933Z,99.99
2019-05-20T00:54:05.968Z,99.99
2019-05-20T00:55:06.004Z,99.99
2019-05-20T00:56:06.058Z,99.99
2019-05-20T00:57:06.103Z,99.99
2019-05-20T00:58:06.111Z,99.99
2019-05-20T00:59:06.149Z,99.99
2019-05-20T01:00:06.293Z,99.99
2019-05-20T01:01:06.216Z,99.99
2019-05-20T01:02:06.253Z,99.99
2019-05-20T01:03:06.289Z,99.99
2019-05-20T01:04:06.321Z,99.99
2019-05-20T01:05:06.360Z,99.99
2019-05-20T01:06:06.393Z,99.99
2019-05-20T01:07:06.427Z,99.99
2019-05-20T01:08:06.466Z,99.99
2019-05-20T01:09:06.503Z,99.99
2019-05-20T01:10:06.534Z,99.99
2019-05-20T01:11:06.569Z,99.99
2019-05-20T01:12:06.605Z,99.99
2019-05-20T01:13:06.638Z,99.72
2019-05-20T01:14:06.675Z,98.95
2019-05-20T01:15:06.710Z,97.90
2019-05-20T01:16:06.751Z,96.32
2019-05-20T01:17:06.781Z,95.84
2019-05-20T01:18:06.817Z,96.80
2019-05-20T01:19:06.850Z,95.94
2019-05-20T01:20:06.888Z,95.75
2019-05-20T01:21:06.934Z,95.36
2019-05-20T01:22:06.959Z,94.69
2019-05-20T01:23:06.992Z,95.07
2019-05-20T01:24:07.027Z,94.21
2019-05-20T01:25:07.068Z,93.02
2019-05-20T01:26:07.101Z,92.82
2019-05-20T01:27:07.142Z,93.11
2019-05-20T01:28:07.168Z,92.25
2019-05-20T01:29:07.202Z,92.92
2019-05-20T01:30:07.242Z,91.96
2019-05-20T01:31:07.276Z,93.49
2019-05-20T01:32:07.315Z,95.31
2019-05-20T01:33:13.674Z,93.49
2019-05-20T01:34:07.382Z,94.35
2019-05-20T01:35:07.419Z,95.98
2019-05-20T01:36:07.453Z,96.70
2019-05-20T01:37:07.496Z,94.60
2019-05-20T01:38:07.524Z,93.54
2019-05-20T01:39:07.560Z,93.59
2019-05-20T01:40:07.594Z,92.15
2019-05-20T01:41:07.631Z,92.92
2019-05-20T01:42:07.667Z,92.73
2019-05-20T01:43:07.703Z,91.67
2019-05-20T01:44:07.739Z,93.11
2019-05-20T01:45:07.781Z,92.92
2019-05-20T01:46:07.812Z,91.19
2019-05-20T01:47:07.846Z,93.02
2019-05-20T01:48:07.880Z,92.15
2019-05-20T01:49:07.921Z,92.92
2019-05-20T01:50:07.951Z,93.40
2019-05-20T01:51:07.989Z,92.92
2019-05-20T01:52:08.023Z,93.83
2019-05-20T01:53:08.055Z,92.97
2019-05-20T01:54:08.095Z,93.45
2019-05-20T01:55:08.129Z,93.83
2019-05-20T01:56:08.166Z,93.26
2019-05-20T01:57:08.198Z,92.21
2019-05-20T01:58:08.234Z,92.21
2019-05-20T01:59:08.268Z,92.92
2019-05-20T02:00:08.308Z,92.06
2019-05-20T02:01:08.340Z,91.67
2019-05-20T02:02:08.375Z,91.39
2019-05-20T02:03:08.414Z,91.86
2019-05-20T02:04:08.448Z,91.00
2019-05-20T02:05:08.488Z,91.00
2019-05-20T02:06:08.520Z,90.81
2019-05-20T02:07:08.555Z,90.05
2019-05-20T02:08:08.594Z,89.61
2019-05-20T02:09:08.627Z,88.84
2019-05-20T02:10:08.667Z,88.94
2019-05-20T02:11:08.698Z,88.46
2019-05-20T02:12:08.786Z,88.56
2019-05-20T02:13:08.771Z,88.31
2019-05-20T02:14:08.805Z,88.02
2019-05-20T02:15:08.839Z,87.64
2019-05-20T02:16:08.877Z,87.07
2019-05-20T02:17:08.911Z,87.35
2019-05-20T02:18:08.953Z,86.88
2019-05-20T02:19:08.981Z,87.07
2019-05-20T02:20:09.018Z,87.16
2019-05-20T02:21:09.052Z,87.35
2019-05-20T02:22:09.098Z,87.45
2019-05-20T02:23:09.127Z,87.07
2019-05-20T02:24:09.164Z,87.93
2019-05-20T02:25:09.198Z,88.22
2019-05-20T02:26:09.239Z,88.02
2019-05-20T02:27:09.268Z,87.16
2019-05-20T02:28:09.304Z,87.16
2019-05-20T02:29:09.339Z,87.45
2019-05-20T02:30:09.390Z,87.07
2019-05-20T02:31:09.412Z,87.21
2019-05-20T02:32:09.447Z,86.44
2019-05-20T02:33:09.496Z,86.63
2019-05-20T02:34:09.525Z,86.54
2019-05-20T02:35:09.568Z,86.82
2019-05-20T02:36:09.600Z,86.63
2019-05-20T02:37:09.636Z,87.11
2019-05-20T02:38:09.666Z,87.59
2019-05-20T02:39:09.703Z,87.21
2019-05-20T02:40:09.740Z,87.49
2019-05-20T02:41:09.778Z,87.98
2019-05-20T02:42:09.812Z,88.07
2019-05-20T02:43:09.848Z,87.78
2019-05-20T02:44:09.900Z,87.68
2019-05-20T02:45:09.922Z,87.40
2019-05-20T02:46:09.962Z,87.88
2019-05-20T02:47:10.002Z,88.55
2019-05-20T02:48:10.032Z,87.88
2019-05-20T02:49:10.071Z,88.07
2019-05-20T02:50:10.107Z,88.65
2019-05-20T02:51:10.140Z,88.17
2019-05-20T02:52:10.179Z,88.55
2019-05-20T02:53:10.221Z,88.74
2019-05-20T02:54:10.252Z,88.79
2019-05-20T02:55:10.289Z,88.69
2019-05-20T02:56:10.324Z,88.74
2019-05-20T02:57:10.361Z,88.69
2019-05-20T02:58:10.403Z,88.59
2019-05-20T02:59:10.437Z,88.59
2019-05-20T03:00:10.489Z,88.69
2019-05-20T03:01:10.511Z,89.07
2019-05-20T03:02:10.551Z,88.59
2019-05-20T03:03:10.639Z,88.69
2019-05-20T03:04:12.869Z,88.69
2019-05-20T03:05:10.658Z,88.49
2019-05-20T03:06:10.695Z,89.26
2019-05-20T03:07:10.733Z,89.17
2019-05-20T03:08:10.770Z,89.75
2019-05-20T03:09:12.338Z,90.70
2019-05-20T03:10:10.842Z,92.05
2019-05-20T03:11:10.880Z,92.33
2019-05-20T03:12:10.922Z,93.77
2019-05-20T03:13:10.955Z,95.70
2019-05-20T03:14:11.005Z,97.61
2019-05-20T03:15:11.028Z,99.99
2019-05-20T03:16:13.327Z,99.99
2019-05-20T03:17:11.109Z,99.99
2019-05-20T03:18:11.149Z,99.99
2019-05-20T03:19:11.272Z,99.99
2019-05-20T03:20:11.213Z,99.99
2019-05-20T03:21:11.253Z,99.99
2019-05-20T03:22:11.288Z,99.99
2019-05-20T03:23:11.323Z,99.99
2019-05-20T03:24:11.365Z,99.99
2019-05-20T03:25:11.401Z,99.99
2019-05-20T03:26:11.436Z,99.99
2019-05-20T03:27:11.484Z,99.99
2019-05-20T03:28:11.506Z,99.99
2019-05-20T03:29:11.542Z,99.99
2019-05-20T03:30:11.598Z,99.99
2019-05-20T03:31:11.630Z,99.99
2019-05-20T03:32:11.658Z,99.99
2019-05-20T03:33:11.688Z,99.99
2019-05-20T03:34:38.940Z,99.99
2019-05-20T03:35:11.760Z,99.99
2019-05-20T03:36:11.807Z,99.99
2019-05-20T03:37:11.832Z,99.99
2019-05-20T03:38:11.867Z,99.99
2019-05-20T03:39:11.901Z,99.99
2019-05-20T03:40:11.937Z,99.99
2019-05-20T03:41:11.977Z,99.99
2019-05-20T03:42:12.011Z,99.99
2019-05-20T03:43:12.051Z,99.99
2019-05-20T03:44:12.078Z,99.99
2019-05-20T03:45:12.113Z,99.99
2019-05-20T03:46:12.152Z,99.99
2019-05-20T03:47:12.185Z,99.99
2019-05-20T03:48:12.222Z,99.99
2019-05-20T03:49:12.257Z,99.99
2019-05-20T03:50:12.297Z,99.99
2019-05-20T03:51:12.330Z,99.99
2019-05-20T03:52:12.448Z,99.99
2019-05-20T03:53:12.398Z,99.99
2019-05-20T03:54:12.436Z,99.99
2019-05-20T03:55:12.469Z,99.99
2019-05-20T03:56:12.510Z,99.99
2019-05-20T03:57:12.538Z,99.99
2019-05-20T03:58:13.773Z,99.99
2019-05-20T03:59:12.618Z,99.99
2019-05-20T04:00:12.651Z,99.99
2019-05-20T04:01:12.682Z,99.99
2019-05-20T04:02:12.718Z,99.99
2019-05-20T04:03:12.758Z,99.99
2019-05-20T04:04:12.787Z,99.99
2019-05-20T04:05:12.821Z,99.99
2019-05-20T04:06:12.857Z,99.99
2019-05-20T04:07:12.896Z,99.99
2019-05-20T04:08:12.929Z,99.99
2019-05-20T04:09:12.970Z,99.99
2019-05-20T04:10:12.999Z,99.99
2019-05-20T04:11:13.034Z,99.99
2019-05-20T04:12:13.069Z,99.99
2019-05-20T04:13:13.118Z,99.99
2019-05-20T04:14:13.144Z,99.99
2019-05-20T04:15:13.175Z,99.99
2019-05-20T04:16:13.212Z,99.99
2019-05-20T04:17:13.247Z,99.99
2019-05-20T04:18:13.284Z,99.99
2019-05-20T04:19:13.322Z,99.99
2019-05-20T04:20:13.361Z,99.99
2019-05-20T04:21:13.394Z,99.99
2019-05-20T04:22:13.428Z,99.99
2019-05-20T04:23:13.462Z,99.99
2019-05-20T04:24:13.570Z,99.99
2019-05-20T04:25:13.536Z,99.99
2019-05-20T04:26:13.572Z,99.99
2019-05-20T04:27:13.611Z,99.99
2019-05-20T04:28:13.648Z,99.99
2019-05-20T04:29:13.684Z,99.99
2019-05-20T04:30:13.721Z,99.99
2019-05-20T04:31:13.752Z,99.99
2019-05-20T04:32:13.793Z,99.99
2019-05-20T04:33:13.825Z,99.99
2019-05-20T04:34:13.862Z,99.99
2019-05-20T04:35:22.394Z,99.99
2019-05-20T04:36:13.938Z,99.99
2019-05-20T04:37:13.975Z,99.99
2019-05-20T04:38:14.009Z,99.99
2019-05-20T04:39:14.045Z,99.99
2019-05-20T04:40:14.086Z,99.99
2019-05-20T04:41:14.123Z,99.99
2019-05-20T04:42:14.158Z,99.99
2019-05-20T04:43:14.193Z,99.99
2019-05-20T04:44:14.233Z,99.99
2019-05-20T04:45:14.268Z,99.99
2019-05-20T04:46:14.301Z,99.99
2019-05-20T04:47:14.338Z,99.99
2019-05-20T04:48:14.384Z,99.99
2019-05-20T04:49:14.410Z,99.99
2019-05-20T04:50:14.489Z,99.99
2019-05-20T04:51:14.485Z,99.99
2019-05-20T04:52:14.525Z,99.99
2019-05-20T04:53:14.571Z,99.99
2019-05-20T04:54:14.594Z,99.99
2019-05-20T04:55:14.641Z,99.99
2019-05-20T04:56:14.667Z,99.99
2019-05-20T04:57:14.703Z,99.99
2019-05-20T04:58:14.739Z,99.99
2019-05-20T04:59:14.777Z,99.99
2019-05-20T05:00:14.815Z,99.99
2019-05-20T05:01:14.934Z,99.99
2019-05-20T05:02:14.890Z,99.99
2019-05-20T05:03:14.924Z,99.99
2019-05-20T05:04:14.961Z,99.99
2019-05-20T05:05:15.006Z,99.99
2019-05-20T05:06:15.036Z,99.99
2019-05-20T05:07:15.072Z,99.99
2019-05-20T05:08:15.106Z,99.99
2019-05-20T05:09:15.780Z,99.99
2019-05-20T05:10:15.180Z,99.99
2019-05-20T05:11:15.221Z,99.99
2019-05-20T05:12:15.306Z,99.99
2019-05-20T05:13:15.304Z,99.99
2019-05-20T05:14:15.329Z,99.99
2019-05-20T05:15:15.364Z,99.99
2019-05-20T05:16:15.407Z,99.99
2019-05-20T05:17:15.437Z,99.99
2019-05-20T05:18:15.475Z,99.99
2019-05-20T05:19:15.519Z,99.99
2019-05-20T05:20:18.474Z,99.99
2019-05-20T05:21:15.589Z,99.99
2019-05-20T05:22:15.626Z,99.99
2019-05-20T05:23:15.661Z,99.99
2019-05-20T05:24:15.699Z,99.99
2019-05-20T05:25:15.739Z,99.99
2019-05-20T05:26:15.773Z,99.99
2019-05-20T05:27:15.810Z,99.99
2019-05-20T05:28:15.847Z,99.99
2019-05-20T05:29:15.888Z,99.99
2019-05-20T05:30:15.927Z,99.99
2019-05-20T05:31:15.960Z,99.99
2019-05-20T05:32:15.997Z,99.99
2019-05-20T05:33:16.036Z,99.99
2019-05-20T05:34:16.085Z,99.99
2019-05-20T05:35:16.116Z,99.99
2019-05-20T05:36:16.151Z,99.99
2019-05-20T05:37:16.188Z,99.99
2019-05-20T05:38:16.228Z,99.99
2019-05-20T05:39:16.266Z,99.99
2019-05-20T05:40:16.305Z,99.99
2019-05-20T05:41:16.349Z,99.99
2019-05-20T05:42:16.385Z,99.99
2019-05-20T05:43:16.421Z,99.99
2019-05-20T05:44:16.464Z,99.99
2019-05-20T05:45:16.501Z,99.99
2019-05-20T05:46:16.543Z,99.99
2019-05-20T05:47:16.582Z,99.99
2019-05-20T05:48:16.626Z,99.99
2019-05-20T05:49:16.665Z,99.99
2019-05-20T05:50:16.702Z,99.99
2019-05-20T05:51:16.742Z,99.99
2019-05-20T05:52:16.784Z,99.99
2019-05-20T05:53:16.825Z,99.99
2019-05-20T05:54:16.868Z,99.99
2019-05-20T05:55:16.911Z,99.99
2019-05-20T05:56:16.947Z,99.99
2019-05-20T05:57:16.992Z,99.99
2019-05-20T05:58:17.030Z,99.99
2019-05-20T05:59:17.069Z,99.99
2019-05-20T06:00:17.111Z,99.99
2019-05-20T06:01:17.161Z,99.99
2019-05-20T06:02:17.200Z,99.99
2019-05-20T06:03:17.235Z,99.99
2019-05-20T06:04:17.272Z,99.99
2019-05-20T06:05:17.313Z,99.99
2019-05-20T06:06:17.359Z,99.99
2019-05-20T06:07:17.395Z,99.99
2019-05-20T06:08:17.433Z,99.99
2019-05-20T06:09:17.477Z,99.99
2019-05-20T06:10:17.519Z,99.99
2019-05-20T06:11:17.554Z,99.99
2019-05-20T06:12:17.593Z,99.99
2019-05-20T06:13:17.635Z,99.99
2019-05-20T06:14:17.671Z,99.99
2019-05-20T06:15:17.712Z,99.99
2019-05-20T06:16:33.555Z,99.99
2019-05-20T06:17:17.789Z,99.99
2019-05-20T06:18:17.833Z,99.99
2019-05-20T06:19:17.865Z,99.99
2019-05-20T06:20:17.904Z,99.99
2019-05-20T06:21:17.943Z,99.99
2019-05-20T06:22:17.982Z,99.99
2019-05-20T06:23:18.022Z,99.99
2019-05-20T06:24:18.059Z,99.99
2019-05-20T06:25:18.098Z,99.99
2019-05-20T06:26:18.149Z,99.99
2019-05-20T06:27:18.173Z,99.99
2019-05-20T06:28:18.210Z,99.99
2019-05-20T06:29:18.255Z,99.99
2019-05-20T06:30:18.287Z,99.99
2019-05-20T06:31:18.345Z,99.99
2019-05-20T06:32:18.360Z,99.99
2019-05-20T06:33:18.404Z,99.99
2019-05-20T06:34:18.437Z,99.99
2019-05-20T06:35:18.473Z,99.99
2019-05-20T06:36:26.402Z,99.99
2019-05-20T06:37:18.554Z,99.99
2019-05-20T06:38:18.588Z,99.99
2019-05-20T06:39:18.624Z,99.99
2019-05-20T06:40:18.664Z,99.99
2019-05-20T06:41:18.729Z,99.99
2019-05-20T06:42:18.746Z,99.99
2019-05-20T06:43:18.792Z,99.99
2019-05-20T06:44:18.818Z,99.99
2019-05-20T06:45:18.851Z,99.99
2019-05-20T06:46:18.903Z,99.99
2019-05-20T06:47:18.927Z,99.99
2019-05-20T06:48:18.960Z,99.99
2019-05-20T06:49:18.997Z,99.99
2019-05-20T06:50:19.097Z,99.99
2019-05-20T06:51:19.073Z,99.99
2019-05-20T06:52:34.947Z,99.99
2019-05-20T06:53:19.147Z,99.99
2019-05-20T06:54:19.188Z,99.99
2019-05-20T06:55:19.219Z,99.99
2019-05-20T06:56:19.256Z,99.99
2019-05-20T06:57:19.292Z,99.99
2019-05-20T06:58:19.336Z,99.99
2019-05-20T06:59:19.370Z,99.99
2019-05-20T07:00:19.405Z,99.99
2019-05-20T07:01:19.441Z,99.99
2019-05-20T07:02:19.482Z,99.99
2019-05-20T07:03:19.525Z,99.99
2019-05-20T07:04:19.555Z,99.99
2019-05-20T07:05:19.592Z,99.99
2019-05-20T07:06:19.631Z,99.99
2019-05-20T07:07:21.183Z,99.99
2019-05-20T07:08:19.702Z,99.99
2019-05-20T07:09:19.742Z,99.99
2019-05-20T07:10:19.782Z,99.99
2019-05-20T07:11:19.825Z,99.99
2019-05-20T07:12:19.855Z,99.99
2019-05-20T07:13:19.905Z,99.99
2019-05-20T07:14:19.933Z,99.99
2019-05-20T07:15:19.967Z,99.99
2019-05-20T07:16:20.008Z,99.99
2019-05-20T07:17:20.058Z,99.99
2019-05-20T07:18:20.086Z,99.99
2019-05-20T07:19:20.119Z,99.99
2019-05-20T07:20:20.158Z,99.99
2019-05-20T07:21:20.196Z,99.99
2019-05-20T07:22:20.235Z,99.99
2019-05-20T07:23:20.285Z,99.99
2019-05-20T07:24:20.314Z,99.99
2019-05-20T07:25:20.364Z,99.99
2019-05-20T07:26:20.392Z,99.99
2019-05-20T07:27:20.429Z,99.99
2019-05-20T07:28:20.465Z,99.99
2019-05-20T07:29:20.507Z,99.99
2019-05-20T07:30:20.546Z,99.99
2019-05-20T07:31:20.588Z,99.99
2019-05-20T07:32:20.625Z,99.99
2019-05-20T07:33:20.660Z,99.99
2019-05-20T07:34:21.085Z,99.99
2019-05-20T07:35:30.231Z,97.42
2019-05-20T07:36:20.780Z,95.84
2019-05-20T07:37:20.832Z,93.33
2019-05-20T07:38:20.868Z,98.15
2019-05-20T07:39:20.907Z,93.33
2019-05-20T07:40:20.949Z,95.69
2019-05-20T07:41:20.984Z,94.97
2019-05-20T07:42:21.034Z,97.42
2019-05-20T07:43:21.067Z,95.64
2019-05-20T07:44:21.109Z,92.76
2019-05-20T07:45:21.165Z,93.81
2019-05-20T07:46:21.198Z,90.73
2019-05-20T07:47:21.230Z,94.20
2019-05-20T07:48:21.296Z,94.20
2019-05-20T07:49:21.317Z,93.33
2019-05-20T07:50:21.353Z,95.59
2019-05-20T07:51:21.394Z,89.19
2019-05-20T07:52:21.435Z,91.55
2019-05-20T07:53:21.477Z,92.08
2019-05-20T07:54:21.518Z,94.64
2019-05-20T07:55:21.562Z,92.08
2019-05-20T07:56:21.602Z,91.89
2019-05-20T07:57:21.664Z,93.81
2019-05-20T07:58:21.685Z,90.73
2019-05-20T07:59:21.727Z,91.65
2019-05-20T08:00:21.768Z,89.86
2019-05-20T08:01:21.813Z,89.24
2019-05-20T08:02:21.851Z,91.41
2019-05-20T08:03:21.891Z,88.51
2019-05-20T08:04:21.973Z,86.82
2019-05-20T08:05:21.975Z,86.43
2019-05-20T08:06:22.021Z,85.41
2019-05-20T08:07:27.911Z,82.36
2019-05-20T08:08:22.102Z,80.24
2019-05-20T08:09:22.144Z,82.40
2019-05-20T08:10:22.185Z,78.96
2019-05-20T08:11:22.235Z,80.28
2019-05-20T08:12:22.274Z,78.00
2019-05-20T08:13:22.333Z,79.58
2019-05-20T08:14:22.359Z,80.16
2019-05-20T08:15:22.397Z,76.55
2019-05-20T08:16:22.557Z,79.64
2019-05-20T08:17:22.489Z,80.22
2019-05-20T08:18:22.529Z,78.44
2019-05-20T08:19:22.584Z,78.31
2019-05-20T08:20:22.615Z,80.39
2019-05-20T08:21:22.661Z,81.66
2019-05-20T08:22:22.704Z,86.87
2019-05-20T08:23:22.749Z,85.28
2019-05-20T08:24:22.793Z,85.82
2019-05-20T08:25:22.832Z,87.36
2019-05-20T08:26:22.876Z,86.65
2019-05-20T08:27:22.920Z,86.89
2019-05-20T08:28:22.966Z,90.12
2019-05-20T08:29:23.010Z,92.61
2019-05-20T08:30:23.050Z,91.46
2019-05-20T08:31:23.106Z,92.43
2019-05-20T08:32:23.151Z,94.54
2019-05-20T08:33:23.175Z,92.76
2019-05-20T08:34:23.217Z,92.47
2019-05-20T08:35:23.852Z,92.19
2019-05-20T08:36:23.300Z,94.45
2019-05-20T08:37:23.342Z,91.22
2019-05-20T08:38:23.383Z,92.38
2019-05-20T08:39:23.425Z,90.41
2019-05-20T08:40:23.472Z,93.19
2019-05-20T08:41:23.535Z,94.40
2019-05-20T08:42:23.600Z,91.80
2019-05-20T08:43:23.601Z,91.51
2019-05-20T08:44:23.635Z,92.95
2019-05-20T08:45:23.678Z,91.03
2019-05-20T08:46:23.729Z,90.69
2019-05-20T08:47:23.758Z,94.06
2019-05-20T08:48:23.803Z,92.61
2019-05-20T08:49:23.853Z,92.91
2019-05-20T08:50:23.894Z,91.70
2019-05-20T08:51:23.925Z,90.35
2019-05-20T08:52:23.975Z,89.58
2019-05-20T08:53:24.010Z,89.58
2019-05-20T08:54:24.051Z,90.12
2019-05-20T08:55:24.093Z,91.13
2019-05-20T08:56:24.136Z,90.11
2019-05-20T08:57:24.176Z,88.38
2019-05-20T08:58:24.217Z,87.07
2019-05-20T08:59:24.258Z,87.36
2019-05-20T09:00:24.850Z,87.07
2019-05-20T09:01:24.347Z,86.59
2019-05-20T09:02:24.386Z,89.72
2019-05-20T09:03:24.436Z,85.46
2019-05-20T09:04:24.471Z,79.72
2019-05-20T09:05:27.935Z,79.64
2019-05-20T09:06:24.566Z,83.69
2019-05-20T09:07:24.603Z,85.70
2019-05-20T09:08:24.648Z,79.98
2019-05-20T09:09:24.797Z,86.30
2019-05-20T09:10:24.731Z,84.95
2019-05-20T09:11:24.773Z,87.84
2019-05-20T09:12:24.816Z,85.43
2019-05-20T09:13:24.860Z,85.87
2019-05-20T09:14:24.907Z,88.42
2019-05-20T09:15:24.944Z,86.07
2019-05-20T09:16:25.000Z,87.46
2019-05-20T09:17:25.036Z,88.67
2019-05-20T09:18:25.076Z,89.34
2019-05-20T09:19:25.162Z,87.60
2019-05-20T09:20:25.192Z,89.43
2019-05-20T09:21:25.214Z,87.03
2019-05-20T09:22:25.254Z,90.16
2019-05-20T09:23:25.290Z,85.53
2019-05-20T09:24:25.335Z,87.12
2019-05-20T09:25:25.374Z,86.24
2019-05-20T09:26:25.420Z,79.31
2019-05-20T09:27:25.460Z,78.21
2019-05-20T09:28:25.524Z,71.14
2019-05-20T09:29:25.569Z,70.18
2019-05-20T09:30:25.598Z,71.67
2019-05-20T09:31:25.654Z,71.80
2019-05-20T09:32:25.682Z,71.08
2019-05-20T09:33:25.759Z,71.94
2019-05-20T09:34:25.780Z,74.52
2019-05-20T09:35:25.822Z,78.34
2019-05-20T09:36:26.138Z,75.00
2019-05-20T09:37:25.911Z,75.04
2019-05-20T09:38:25.966Z,73.72
2019-05-20T09:39:26.011Z,72.33
2019-05-20T09:40:26.061Z,72.49
2019-05-20T09:41:26.098Z,73.01
2019-05-20T09:42:26.155Z,76.90
2019-05-20T09:43:26.194Z,76.86
2019-05-20T09:44:26.240Z,79.24
2019-05-20T09:45:26.287Z,79.54
2019-05-20T09:46:26.339Z,79.87
2019-05-20T09:47:26.396Z,81.16
2019-05-20T09:48:26.424Z,80.10
2019-05-20T09:49:26.731Z,78.06
2019-05-20T09:50:26.523Z,76.70
2019-05-20T09:51:26.565Z,78.41
2019-05-20T09:52:26.610Z,80.05
2019-05-20T09:53:26.658Z,79.49
2019-05-20T09:54:26.703Z,80.69
2019-05-20T09:55:26.758Z,79.97
2019-05-20T09:56:26.796Z,80.00
2019-05-20T09:57:26.845Z,78.23
2019-05-20T09:58:26.897Z,79.83
2019-05-20T09:59:42.095Z,82.14
2019-05-20T10:00:26.979Z,80.45
2019-05-20T10:01:27.027Z,80.89
2019-05-20T10:02:35.820Z,81.52
2019-05-20T10:03:27.115Z,83.74
2019-05-20T10:04:27.161Z,82.72
2019-05-20T10:05:27.207Z,82.92
2019-05-20T10:06:27.251Z,83.01
2019-05-20T10:07:27.303Z,81.91
2019-05-20T10:08:37.622Z,82.74
2019-05-20T10:09:27.385Z,84.56
2019-05-20T10:10:27.496Z,84.95
2019-05-20T10:11:27.489Z,87.30
2019-05-20T10:12:44.639Z,85.05
2019-05-20T10:13:27.567Z,87.07
2019-05-20T10:14:27.660Z,86.21
2019-05-20T10:15:27.653Z,86.30
2019-05-20T10:16:27.709Z,86.21
2019-05-20T10:17:27.740Z,86.88
2019-05-20T10:18:37.182Z,85.63
2019-05-20T10:19:27.828Z,87.55
2019-05-20T10:20:27.872Z,87.40
2019-05-20T10:21:27.913Z,86.59
2019-05-20T10:22:27.956Z,88.23
2019-05-20T10:23:27.998Z,88.61
2019-05-20T10:24:28.046Z,87.50
2019-05-20T10:25:28.088Z,83.31
2019-05-20T10:26:28.130Z,84.76
2019-05-20T10:27:28.173Z,86.30
2019-05-20T10:28:28.215Z,85.28
2019-05-20T10:29:28.255Z,84.94
2019-05-20T10:30:28.302Z,84.07
2019-05-20T10:31:28.368Z,82.28
2019-05-20T10:32:28.388Z,81.02
2019-05-20T10:33:28.426Z,81.45
2019-05-20T10:34:28.473Z,79.68
2019-05-20T10:35:28.512Z,82.57
2019-05-20T10:36:28.556Z,83.48
2019-05-20T10:37:28.613Z,82.90
2019-05-20T10:38:28.642Z,79.17
2019-05-20T10:39:28.686Z,78.83
2019-05-20T10:40:28.765Z,75.35
2019-05-20T10:41:29.691Z,75.68
2019-05-20T10:42:28.816Z,77.13
2019-05-20T10:43:28.859Z,73.36
2019-05-20T10:44:28.903Z,77.80
2019-05-20T10:45:28.950Z,72.56
2019-05-20T10:46:28.990Z,69.50
2019-05-20T10:47:29.037Z,72.27
2019-05-20T10:48:29.079Z,72.17
2019-05-20T10:49:29.127Z,69.89
2019-05-20T10:50:29.178Z,69.57
2019-05-20T10:51:29.215Z,66.37
2019-05-20T10:52:29.260Z,68.66
2019-05-20T10:53:29.306Z,70.53
2019-05-20T10:54:29.355Z,68.27
2019-05-20T10:55:29.402Z,70.08
2019-05-20T10:56:29.443Z,67.34
2019-05-20T10:57:29.491Z,66.37
2019-05-20T10:58:29.541Z,63.59
2019-05-20T10:59:29.584Z,67.63
2019-05-20T11:00:29.635Z,68.92
2019-05-20T11:01:29.679Z,64.33
2019-05-20T11:02:31.258Z,63.10
2019-05-20T11:03:29.779Z,62.78
2019-05-20T11:04:29.824Z,62.65
2019-05-20T11:05:29.872Z,61.64
2019-05-20T11:06:29.924Z,57.29
2019-05-20T11:07:29.970Z,58.64
2019-05-20T11:08:30.026Z,58.39
2019-05-20T11:09:30.072Z,62.36
2019-05-20T11:10:30.120Z,62.91
2019-05-20T11:11:30.166Z,64.53
2019-05-20T11:12:30.252Z,58.64
2019-05-20T11:13:30.271Z,61.07
2019-05-20T11:14:30.319Z,61.61
2019-05-20T11:15:30.380Z,61.97
2019-05-20T11:16:30.419Z,58.47
2019-05-20T11:17:30.472Z,56.82
2019-05-20T11:18:30.521Z,58.44
2019-05-20T11:19:30.573Z,60.14
2019-05-20T11:20:30.625Z,63.46
2019-05-20T11:21:30.695Z,63.66
2019-05-20T11:22:30.764Z,64.40
2019-05-20T11:23:30.777Z,67.63
2019-05-20T11:24:30.827Z,62.24
2019-05-20T11:25:30.879Z,62.98
2019-05-20T11:26:30.936Z,65.40
2019-05-20T11:27:30.976Z,62.34
2019-05-20T11:28:31.030Z,62.79
2019-05-20T11:29:31.077Z,63.53
2019-05-20T11:30:31.155Z,62.53
2019-05-20T11:31:31.185Z,61.88
2019-05-20T11:32:31.261Z,63.82
2019-05-20T11:33:31.279Z,63.56
2019-05-20T11:34:31.375Z,62.82
2019-05-20T11:35:31.393Z,63.75
2019-05-20T11:36:31.428Z,61.63
2019-05-20T11:37:31.479Z,65.24
2019-05-20T11:38:31.564Z,61.95
2019-05-20T11:39:34.019Z,62.98
2019-05-20T11:40:31.631Z,63.89
2019-05-20T11:41:53.247Z,62.85
2019-05-20T11:42:31.729Z,61.21
2019-05-20T11:43:31.787Z,62.17
2019-05-20T11:44:31.837Z,63.66
2019-05-20T11:45:31.884Z,66.24
2019-05-20T11:46:31.930Z,65.11
2019-05-20T11:47:31.994Z,62.75
2019-05-20T11:48:32.036Z,59.25
2019-05-20T11:49:32.115Z,57.25
2019-05-20T11:50:32.144Z,63.29
2019-05-20T11:51:32.184Z,57.96
2019-05-20T11:52:32.249Z,59.22
2019-05-20T11:53:32.281Z,57.57
2019-05-20T11:54:32.335Z,58.55
2019-05-20T11:55:32.401Z,60.00
2019-05-20T11:56:32.437Z,60.94
2019-05-20T11:57:32.489Z,60.15
2019-05-20T11:58:32.537Z,59.41
2019-05-20T11:59:32.587Z,55.83
2019-05-20T12:00:32.640Z,56.90
2019-05-20T12:01:32.694Z,54.11
2019-05-20T12:02:32.748Z,57.00
2019-05-20T12:03:32.794Z,54.11
2019-05-20T12:04:32.845Z,54.27
2019-05-20T12:05:32.900Z,57.42
2019-05-20T12:06:32.951Z,58.58
2019-05-20T12:07:33.001Z,60.00
2019-05-20T12:08:33.054Z,59.87
2019-05-20T12:09:48.363Z,57.73
2019-05-20T12:10:33.161Z,59.05
2019-05-20T12:11:33.210Z,56.54
2019-05-20T12:12:33.262Z,58.28
2019-05-20T12:13:33.324Z,58.53
2019-05-20T12:14:33.370Z,54.96
2019-05-20T12:15:33.421Z,56.96
2019-05-20T12:16:33.481Z,59.69
2019-05-20T12:17:33.527Z,59.97
2019-05-20T12:18:33.579Z,60.16
2019-05-20T12:19:33.638Z,58.39
2019-05-20T12:20:33.681Z,61.46
2019-05-20T12:21:33.736Z,60.13
2019-05-20T12:22:33.788Z,59.19
2019-05-20T12:23:33.839Z,56.71
2019-05-20T12:24:33.899Z,60.45
2019-05-20T12:25:33.955Z,57.82
2019-05-20T12:26:33.996Z,55.61
2019-05-20T12:27:34.046Z,53.50
2019-05-20T12:28:34.101Z,54.94
2019-05-20T12:29:34.160Z,57.54
2019-05-20T12:30:34.252Z,58.29
2019-05-20T12:31:34.259Z,57.76
2019-05-20T12:32:34.311Z,57.09
2019-05-20T12:33:34.363Z,58.78
2019-05-20T12:34:34.521Z,62.49
2019-05-20T12:35:34.469Z,59.61
2019-05-20T12:36:34.521Z,61.11
2019-05-20T12:37:34.577Z,61.59
2019-05-20T12:38:34.628Z,62.37
2019-05-20T12:39:34.683Z,59.59
2019-05-20T12:40:34.729Z,60.88
2019-05-20T12:41:34.793Z,63.10
2019-05-20T12:42:34.838Z,60.23
2019-05-20T12:43:34.889Z,59.91
2019-05-20T12:44:34.938Z,59.06
2019-05-20T12:45:34.989Z,58.81
2019-05-20T12:46:35.043Z,61.30
2019-05-20T12:47:35.139Z,61.79
2019-05-20T12:48:35.148Z,62.69
2019-05-20T12:49:35.326Z,61.46
2019-05-20T12:50:35.247Z,59.03
2019-05-20T12:51:35.300Z,59.13
2019-05-20T12:52:35.353Z,59.36